Janie — WDD4142 — position and weather

sailwx.info

Track history (hours):
 
Tides and Currents Weather Stations Pressure Air Temp Water Temp Dewpoint Dewpoint Depression Visibility Wind Speed Wind Dir Waves Ship Positions

Janie

Owner: Offshore Liftboats, LLC, Cut Off, LA. More information available from US FCC via Universal Licensing System and Coast Guard Vessel Documentation Center.

Last reported at 2017-Jun-03 23:07 UTC. Time now 2017-Jun-28 21:02 UTC.
Position N 29°46' W 093°21'.
Warning: this ship's position is 24 days out of date.

Length 38 m; draft 2.7 m.

Type: Ship. MMSI: 367140730.

Date/timePositionNaut miles runAvg speedWind from/ knotsBaromVisibWave heightAir tempDewpointWater temp
2017-Jun-03 23:07N 29°46' W 093°21'3 6.0
2017-Jun-03 22:37N 29°49' W 093°21'0 0.3
2017-Jun-03 21:43N 29°49' W 093°20'0 0.0
2017-Jun-03 20:54N 29°49' W 093°20'0 0.0
2017-Jun-03 20:30N 29°49' W 093°20'0 0.0
2017-Jun-03 19:55N 29°49' W 093°20'0 0.0
2017-Jun-03 19:23N 29°49' W 093°20'0 0.0
2017-Jun-03 18:53N 29°49' W 093°20'20 0.4
2017-Jun-01 16:48N 29°40' W 093°40'0 0.0
2017-Jun-01 16:11N 29°40' W 093°40'0 0.0
2017-Jun-01 10:25N 29°40' W 093°40'  
2017-May-30 05:04N 29°40' W 093°40'19 1.6
2017-May-29 17:02N 29°49' W 093°21'0 3.8
2017-May-29 16:59N 29°49' W 093°20'0 0.2
2017-May-29 16:21N 29°49' W 093°20'0 0.0
2017-May-29 15:16N 29°49' W 093°20'0 0.0
2017-May-29 14:51N 29°49' W 093°20'0 0.0
2017-May-29 14:11N 29°49' W 093°20'0 0.0
2017-May-29 13:29N 29°49' W 093°20'0 0.0
2017-May-29 12:55N 29°49' W 093°20'0 0.0
2017-May-29 12:19N 29°49' W 093°20'0 0.0
2017-May-29 11:51N 29°49' W 093°20'0 0.1
2017-May-29 11:30N 29°49' W 093°20'0 0.0
2017-May-29 11:00N 29°49' W 093°20'0 0.0
2017-May-29 10:30N 29°49' W 093°20'0 0.0
2017-May-29 09:37N 29°49' W 093°20'0 0.0
2017-May-29 09:30N 29°49' W 093°20'0 0.0
2017-May-29 09:00N 29°49' W 093°20'0 0.0
2017-May-29 08:30N 29°49' W 093°20'0 0.0
2017-May-29 08:00N 29°49' W 093°20'0 0.0
2017-May-29 07:30N 29°49' W 093°20'0 0.0
2017-May-29 07:00N 29°49' W 093°20'0 0.0
2017-May-29 06:30N 29°49' W 093°20'0 0.0
2017-May-29 06:00N 29°49' W 093°20'0 0.0
2017-May-29 05:30N 29°49' W 093°20'0 0.0
2017-May-29 05:00N 29°49' W 093°20'0 0.0
2017-May-29 04:30N 29°49' W 093°20'0 0.0
2017-May-29 04:00N 29°49' W 093°20'0 0.0
2017-May-29 03:30N 29°49' W 093°20'0 0.0
2017-May-29 03:00N 29°49' W 093°20'0 0.0
2017-May-29 02:30N 29°49' W 093°20'0 0.0
2017-May-29 02:00N 29°49' W 093°20'0 0.0
2017-May-29 01:30N 29°49' W 093°20'0 0.0
2017-May-29 01:00N 29°49' W 093°20'0 0.0
2017-May-29 00:30N 29°49' W 093°20'0 0.0
2017-May-29 00:00N 29°49' W 093°20'0 0.0
2017-May-28 23:30N 29°49' W 093°20'0 0.0
2017-May-28 23:00N 29°49' W 093°20'0 0.0
2017-May-28 22:30N 29°49' W 093°20'0 0.0
2017-May-28 22:00N 29°49' W 093°20'0 0.0
2017-May-28 21:30N 29°49' W 093°20'0 0.0
2017-May-28 21:00N 29°49' W 093°20'0 0.0
2017-May-28 20:30N 29°49' W 093°20'0 0.0
2017-May-28 20:00N 29°49' W 093°20'0 0.0
2017-May-28 19:30N 29°49' W 093°20'0 0.0
2017-May-28 19:00N 29°49' W 093°20'0 0.0
2017-May-28 18:30N 29°49' W 093°20'0 0.0
2017-May-28 18:00N 29°49' W 093°20'0 0.0
2017-May-28 17:30N 29°49' W 093°20'0 0.0
2017-May-28 17:00N 29°49' W 093°20'0 0.0
2017-May-28 16:30N 29°49' W 093°20'0 0.0
2017-May-28 16:00N 29°49' W 093°20'0 0.0
2017-May-28 15:30N 29°49' W 093°20'0 0.0
2017-May-28 15:00N 29°49' W 093°20'0 0.0
2017-May-28 14:00N 29°49' W 093°20'0 0.0
2017-May-28 13:29N 29°49' W 093°20'0 0.0
2017-May-28 13:00N 29°49' W 093°20'0 0.0
2017-May-28 12:30N 29°49' W 093°20'0 0.0
2017-May-28 11:59N 29°49' W 093°20'0 0.0
2017-May-28 11:28N 29°49' W 093°20'0 0.0
2017-May-28 10:57N 29°49' W 093°20'0 0.0
2017-May-28 10:29N 29°49' W 093°20'0 0.0
2017-May-28 09:56N 29°49' W 093°20'0 0.0
2017-May-28 09:28N 29°49' W 093°20'0 0.0
2017-May-28 08:55N 29°49' W 093°20'0 0.1
2017-May-28 08:30N 29°49' W 093°20'0 0.3
2017-May-28 08:00N 29°49' W 093°20'0 0.0
2017-May-28 07:30N 29°49' W 093°20'0 0.0
2017-May-28 07:00N 29°49' W 093°20'0 0.0
2017-May-28 06:30N 29°49' W 093°20'0 0.0
2017-May-28 06:00N 29°49' W 093°20'0 0.0
2017-May-28 05:30N 29°49' W 093°20'0 0.0
2017-May-28 05:00N 29°49' W 093°20'0 0.0
2017-May-28 04:30N 29°49' W 093°20'0 0.0
2017-May-28 03:59N 29°49' W 093°20'0 0.0
2017-May-28 03:29N 29°49' W 093°20'0 0.0
2017-May-28 03:00N 29°49' W 093°20'0 0.0
2017-May-28 02:30N 29°49' W 093°20'0 0.0
2017-May-28 02:00N 29°49' W 093°20'0 0.0
2017-May-28 01:30N 29°49' W 093°20'0 0.0
2017-May-28 01:00N 29°49' W 093°20'0 0.0
2017-May-28 00:30N 29°49' W 093°20'0 0.0
2017-May-28 00:00N 29°49' W 093°20'0 0.0
2017-May-27 23:26N 29°49' W 093°20'0 0.0
2017-May-27 23:00N 29°49' W 093°20'0 0.0
2017-May-27 22:30N 29°49' W 093°20'0 0.0
2017-May-27 22:00N 29°49' W 093°20'0 0.0
2017-May-27 21:29N 29°49' W 093°20'0 0.0
2017-May-27 21:00N 29°49' W 093°20'0 0.0
2017-May-27 20:30N 29°49' W 093°20'0 0.0
2017-May-27 20:00N 29°49' W 093°20'0 0.0
2017-May-27 19:30N 29°49' W 093°20'0 0.0
2017-May-27 19:00N 29°49' W 093°20'0 0.0
2017-May-27 18:30N 29°49' W 093°20'0 0.0
2017-May-27 18:00N 29°49' W 093°20'7 3.1
2017-May-27 15:51N 29°43' W 093°19'  
Track history (hours):
 
Tides and Currents Weather Stations Pressure Air Temp Water Temp Dewpoint Dewpoint Depression Visibility Wind Speed Wind Dir Waves Ship Positions

Janie

Owner: Offshore Liftboats, LLC, Cut Off, LA. More information available from US FCC via Universal Licensing System and Coast Guard Vessel Documentation Center.

Last reported at 2017-Jun-03 23:07 UTC. Time now 2017-Jun-28 21:02 UTC.
Position N 29°46' W 093°21'.
Warning: this ship's position is 24 days out of date.

Length 38 m; draft 2.7 m.

Type: Ship. MMSI: 367140730.

Date/timePositionNaut miles runAvg speedWind from/ knotsBaromVisibWave heightAir tempDewpointWater temp
2017-Jun-03 23:07N 29°46' W 093°21'3 6.0
2017-Jun-03 22:37N 29°49' W 093°21'0 0.3
2017-Jun-03 21:43N 29°49' W 093°20'0 0.0
2017-Jun-03 20:54N 29°49' W 093°20'0 0.0
2017-Jun-03 20:30N 29°49' W 093°20'0 0.0
2017-Jun-03 19:55N 29°49' W 093°20'0 0.0
2017-Jun-03 19:23N 29°49' W 093°20'0 0.0
2017-Jun-03 18:53N 29°49' W 093°20'20 0.4
2017-Jun-01 16:48N 29°40' W 093°40'0 0.0
2017-Jun-01 16:11N 29°40' W 093°40'0 0.0
2017-Jun-01 10:25N 29°40' W 093°40'  
2017-May-30 05:04N 29°40' W 093°40'19 1.6
2017-May-29 17:02N 29°49' W 093°21'0 3.8
2017-May-29 16:59N 29°49' W 093°20'0 0.2
2017-May-29 16:21N 29°49' W 093°20'0 0.0
2017-May-29 15:16N 29°49' W 093°20'0 0.0
2017-May-29 14:51N 29°49' W 093°20'0 0.0
2017-May-29 14:11N 29°49' W 093°20'0 0.0
2017-May-29 13:29N 29°49' W 093°20'0 0.0
2017-May-29 12:55N 29°49' W 093°20'0 0.0
2017-May-29 12:19N 29°49' W 093°20'0 0.0
2017-May-29 11:51N 29°49' W 093°20'0 0.1
2017-May-29 11:30N 29°49' W 093°20'0 0.0
2017-May-29 11:00N 29°49' W 093°20'0 0.0
2017-May-29 10:30N 29°49' W 093°20'0 0.0
2017-May-29 09:37N 29°49' W 093°20'0 0.0
2017-May-29 09:30N 29°49' W 093°20'0 0.0
2017-May-29 09:00N 29°49' W 093°20'0 0.0
2017-May-29 08:30N 29°49' W 093°20'0 0.0
2017-May-29 08:00N 29°49' W 093°20'0 0.0
2017-May-29 07:30N 29°49' W 093°20'0 0.0
2017-May-29 07:00N 29°49' W 093°20'0 0.0
2017-May-29 06:30N 29°49' W 093°20'0 0.0
2017-May-29 06:00N 29°49' W 093°20'0 0.0
2017-May-29 05:30N 29°49' W 093°20'0 0.0
2017-May-29 05:00N 29°49' W 093°20'0 0.0
2017-May-29 04:30N 29°49' W 093°20'0 0.0
2017-May-29 04:00N 29°49' W 093°20'0 0.0
2017-May-29 03:30N 29°49' W 093°20'0 0.0
2017-May-29 03:00N 29°49' W 093°20'0 0.0
2017-May-29 02:30N 29°49' W 093°20'0 0.0
2017-May-29 02:00N 29°49' W 093°20'0 0.0
2017-May-29 01:30N 29°49' W 093°20'0 0.0
2017-May-29 01:00N 29°49' W 093°20'0 0.0
2017-May-29 00:30N 29°49' W 093°20'0 0.0
2017-May-29 00:00N 29°49' W 093°20'0 0.0
2017-May-28 23:30N 29°49' W 093°20'0 0.0
2017-May-28 23:00N 29°49' W 093°20'0 0.0
2017-May-28 22:30N 29°49' W 093°20'0 0.0
2017-May-28 22:00N 29°49' W 093°20'0 0.0
2017-May-28 21:30N 29°49' W 093°20'0 0.0
2017-May-28 21:00N 29°49' W 093°20'0 0.0
2017-May-28 20:30N 29°49' W 093°20'0 0.0
2017-May-28 20:00N 29°49' W 093°20'0 0.0
2017-May-28 19:30N 29°49' W 093°20'0 0.0
2017-May-28 19:00N 29°49' W 093°20'0 0.0
2017-May-28 18:30N 29°49' W 093°20'0 0.0
2017-May-28 18:00N 29°49' W 093°20'0 0.0
2017-May-28 17:30N 29°49' W 093°20'0 0.0
2017-May-28 17:00N 29°49' W 093°20'0 0.0
2017-May-28 16:30N 29°49' W 093°20'0 0.0
2017-May-28 16:00N 29°49' W 093°20'0 0.0
2017-May-28 15:30N 29°49' W 093°20'0 0.0
2017-May-28 15:00N 29°49' W 093°20'0 0.0
2017-May-28 14:00N 29°49' W 093°20'0 0.0
2017-May-28 13:29N 29°49' W 093°20'0 0.0
2017-May-28 13:00N 29°49' W 093°20'0 0.0
2017-May-28 12:30N 29°49' W 093°20'0 0.0
2017-May-28 11:59N 29°49' W 093°20'0 0.0
2017-May-28 11:28N 29°49' W 093°20'0 0.0
2017-May-28 10:57N 29°49' W 093°20'0 0.0
2017-May-28 10:29N 29°49' W 093°20'0 0.0
2017-May-28 09:56N 29°49' W 093°20'0 0.0
2017-May-28 09:28N 29°49' W 093°20'0 0.0
2017-May-28 08:55N 29°49' W 093°20'0 0.1
2017-May-28 08:30N 29°49' W 093°20'0 0.3
2017-May-28 08:00N 29°49' W 093°20'0 0.0
2017-May-28 07:30N 29°49' W 093°20'0 0.0
2017-May-28 07:00N 29°49' W 093°20'0 0.0
2017-May-28 06:30N 29°49' W 093°20'0 0.0
2017-May-28 06:00N 29°49' W 093°20'0 0.0
2017-May-28 05:30N 29°49' W 093°20'0 0.0
2017-May-28 05:00N 29°49' W 093°20'0 0.0
2017-May-28 04:30N 29°49' W 093°20'0 0.0
2017-May-28 03:59N 29°49' W 093°20'0 0.0
2017-May-28 03:29N 29°49' W 093°20'0 0.0
2017-May-28 03:00N 29°49' W 093°20'0 0.0
2017-May-28 02:30N 29°49' W 093°20'0 0.0
2017-May-28 02:00N 29°49' W 093°20'0 0.0
2017-May-28 01:30N 29°49' W 093°20'0 0.0
2017-May-28 01:00N 29°49' W 093°20'0 0.0
2017-May-28 00:30N 29°49' W 093°20'0 0.0
2017-May-28 00:00N 29°49' W 093°20'0 0.0
2017-May-27 23:26N 29°49' W 093°20'0 0.0
2017-May-27 23:00N 29°49' W 093°20'0 0.0
2017-May-27 22:30N 29°49' W 093°20'0 0.0
2017-May-27 22:00N 29°49' W 093°20'0 0.0
2017-May-27 21:29N 29°49' W 093°20'0 0.0
2017-May-27 21:00N 29°49' W 093°20'0 0.0
2017-May-27 20:30N 29°49' W 093°20'0 0.0
2017-May-27 20:00N 29°49' W 093°20'0 0.0
2017-May-27 19:30N 29°49' W 093°20'0 0.0
2017-May-27 19:00N 29°49' W 093°20'0 0.0
2017-May-27 18:30N 29°49' W 093°20'0 0.0
2017-May-27 18:00N 29°49' W 093°20'7 3.1
2017-May-27 15:51N 29°43' W 093°19'  

Dump ship's entire track history